Weather History for Farmington, MO

Change the Weather History Date:

Thursday, December 13, 2012

  Actual Average Record
Temperature  
Mean Temperature 40 °F -  
Max Temperature 51 °F 43 °F 64 °F (2006)
Min Temperature 28 °F 27 °F -38 °F (2005)
Degree Days  
Heating Degree Days 26    
Moisture  
Dew Point 24 °F    
Average Humidity 57    
Maximum Humidity 80    
Minimum Humidity 30    
Precipitation  
Precipitation 0.00 in - - ()
Sea Level Pressure  
Sea Level Pressure 30.29 in    
Wind  
Wind Speed 8 mph (South)    
Max Wind Speed 16 mph    
Max Gust Speed 20 mph    
Visibility 10 miles    
Events      
Averages and records for this station are not official NWS values.
T = Trace of Precipitation, MM = Missing Value Source: NWS Daily Summary

Daily Weather History Graph

Daily Weather History Graph

Search for Another Location

Airport:

Trip Planner

Search our weather history database for the weather conditions in past years. The results will help you decide how hot, cold, wet, or windy it might be!

Date:

Astronomy

Dec. 13, 2012 Rise Set
Actual Time 7:08 AM CST 4:43 PM CST
Civil Twilight 6:39 AM CST 5:12 PM CST
Nautical Twilight 6:06 AM CST 5:45 PM CST
Astronomical Twilight 5:34 AM CST 6:17 PM CST
Moon 7:17 AM CST (12/13) 5:25 PM CST (12/13)
Length of Visible Light 10h 33m
Length of Day
9h 34m
New Moon, 0% of the Moon is Illuminated
Dec 13
New Moon
Dec 19
First Quarter
Dec 28
Full
Jan 4
Last Quarter
Jan 11
New

Hourly Weather History & Observations

Time (CST) Temp. Windchill Dew Point Humidity Pressure Visibility Wind Dir Wind Speed Gust Speed Precip Events Conditions
12:15 AM 30.2 °F 22.6 °F 23.0 °F 75% 30.31 in 10.0 mi South 8.1 mph - N/A   Clear
12:35 AM 30.2 °F 23.4 °F 24.8 °F 80% 30.29 in 10.0 mi SSE 6.9 mph - N/A   Clear
12:55 AM 33.8 °F - 24.8 °F 70% 30.31 in 10.0 mi Calm Calm - N/A   Clear
1:15 AM 33.8 °F 29.6 °F 23.0 °F 65% 30.32 in 10.0 mi South 4.6 mph - N/A   Clear
1:35 AM 30.2 °F - 21.2 °F 69% 30.32 in 10.0 mi Calm Calm - N/A   Clear
1:55 AM 30.2 °F 26.7 °F 24.8 °F 80% 30.33 in 10.0 mi South 3.5 mph - N/A   Clear
2:15 AM 30.2 °F 23.4 °F 21.2 °F 69% 30.33 in 10.0 mi SSE 6.9 mph - N/A   Clear
2:35 AM 30.2 °F 24.3 °F 21.2 °F 69% 30.33 in 10.0 mi SSE 5.8 mph - N/A   Clear
2:55 AM 30.2 °F 24.3 °F 24.8 °F 80% 30.33 in 10.0 mi South 5.8 mph - N/A   Clear
3:15 AM 30.2 °F 24.3 °F 21.2 °F 69% 30.33 in 10.0 mi South 5.8 mph - N/A   Clear
3:35 AM 30.2 °F 24.3 °F 21.2 °F 69% 30.32 in 10.0 mi South 5.8 mph - N/A   Clear
3:55 AM 30.2 °F 22.6 °F 21.2 °F 69% 30.31 in 10.0 mi South 8.1 mph - N/A   Clear
4:15 AM 30.2 °F 23.4 °F 21.2 °F 69% 30.31 in 10.0 mi South 6.9 mph - N/A   Clear
4:35 AM 30.2 °F 24.3 °F 21.2 °F 69% 30.31 in 10.0 mi South 5.8 mph - N/A   Clear
4:55 AM 30.2 °F 22.6 °F 21.2 °F 69% 30.32 in 10.0 mi South 8.1 mph - N/A   Clear
5:15 AM 30.2 °F 21.9 °F 21.2 °F 69% 30.32 in 10.0 mi South 9.2 mph - N/A   Clear
5:35 AM 30.2 °F 22.6 °F 23.0 °F 75% 30.32 in 10.0 mi South 8.1 mph - N/A   Clear
5:55 AM 28.4 °F 21.2 °F 21.2 °F 74% 30.32 in 10.0 mi SSE 6.9 mph - N/A   Clear
6:15 AM 30.2 °F 22.6 °F 21.2 °F 69% 30.32 in 10.0 mi South 8.1 mph - N/A   Clear
6:35 AM 30.2 °F 23.4 °F 21.2 °F 69% 30.33 in 10.0 mi South 6.9 mph - N/A   Clear
6:55 AM 30.2 °F 22.6 °F 23.0 °F 75% 30.33 in 10.0 mi South 8.1 mph - N/A   Clear
7:15 AM 30.2 °F 23.4 °F 23.0 °F 75% 30.33 in 10.0 mi South 6.9 mph - N/A   Clear
7:35 AM 30.2 °F 22.6 °F 24.8 °F 80% 30.33 in 10.0 mi South 8.1 mph - N/A   Clear
7:55 AM 32.0 °F 24.2 °F 24.8 °F 75% 30.33 in 10.0 mi South 9.2 mph - N/A   Clear
8:15 AM 33.8 °F 25.3 °F 24.8 °F 70% 30.33 in 10.0 mi South 11.5 mph - N/A   Clear
8:35 AM 35.6 °F 28.0 °F 26.6 °F 70% 30.34 in 10.0 mi South 10.4 mph - N/A   Clear
8:55 AM 35.6 °F 27.1 °F 26.6 °F 70% 30.34 in 10.0 mi South 12.7 mph - N/A   Clear
9:15 AM 37.4 °F 28.9 °F 24.8 °F 60% 30.34 in 10.0 mi South 13.8 mph - N/A   Clear
9:35 AM 39.2 °F 31.2 °F 26.6 °F 61% 30.34 in 10.0 mi South 13.8 mph - N/A   Clear
9:55 AM 42.8 °F 35.1 °F 26.6 °F 53% 30.35 in 10.0 mi South 16.1 mph 19.6 mph N/A   Clear
10:15 AM 42.8 °F 36.6 °F 26.6 °F 53% 30.34 in 10.0 mi South 11.5 mph 17.3 mph N/A   Clear
10:35 AM 44.6 °F 38.1 °F 26.6 °F 49% 30.34 in 10.0 mi SSE 13.8 mph - N/A   Clear
10:55 AM 44.6 °F 38.1 °F 24.8 °F 46% 30.33 in 10.0 mi South 13.8 mph 18.4 mph N/A   Clear
11:15 AM 46.4 °F 40.7 °F 24.8 °F 43% 30.32 in 10.0 mi SSE 12.7 mph - N/A   Clear
11:35 AM 46.4 °F 41.1 °F 24.8 °F 43% 30.31 in 10.0 mi South 11.5 mph - N/A   Clear
11:55 AM 48.2 °F - 24.8 °F 40% 30.30 in 10.0 mi South 11.5 mph - N/A   Clear
12:15 PM 48.2 °F - 23.0 °F 37% 30.29 in 10.0 mi South 12.7 mph - N/A   Clear
12:35 PM 48.2 °F - 24.8 °F 40% 30.29 in 10.0 mi SSE 13.8 mph - N/A   Clear
12:55 PM 50.0 °F - 23.0 °F 35% 30.28 in 10.0 mi South 10.4 mph - N/A   Clear
1:15 PM 50.0 °F - 23.0 °F 35% 30.27 in 10.0 mi South 10.4 mph - N/A   Clear
1:35 PM 50.0 °F - 23.0 °F 35% 30.26 in 10.0 mi South 12.7 mph - N/A   Clear
1:55 PM 51.8 °F - 23.0 °F 33% 30.25 in 10.0 mi South 12.7 mph - N/A   Clear
2:15 PM 51.8 °F - 24.8 °F 35% 30.25 in 10.0 mi South 11.5 mph - N/A   Clear
2:35 PM 51.8 °F - 23.0 °F 33% 30.24 in 10.0 mi South 10.4 mph - N/A   Clear
2:55 PM 51.8 °F - 24.8 °F 35% 30.24 in 10.0 mi South 10.4 mph - N/A   Clear
3:15 PM 51.8 °F - 23.0 °F 33% 30.24 in 10.0 mi South 10.4 mph - N/A   Clear
3:35 PM 51.8 °F - 21.2 °F 30% 30.24 in 10.0 mi South 10.4 mph - N/A   Clear
3:55 PM 50.0 °F - 21.2 °F 32% 30.23 in 10.0 mi South 12.7 mph - N/A   Clear
4:15 PM 48.2 °F - 21.2 °F 34% 30.23 in 10.0 mi South 8.1 mph - N/A   Clear
4:35 PM 46.4 °F 42.4 °F 21.2 °F 37% 30.23 in 10.0 mi South 8.1 mph - N/A   Clear
6:15 PM 42.8 °F 38.6 °F 19.4 °F 39% 30.23 in 10.0 mi South 6.9 mph - N/A   Clear
7:15 PM 39.2 °F 34.2 °F 21.2 °F 49% 30.24 in 10.0 mi South 6.9 mph - N/A   Clear
7:35 PM 39.2 °F 33.6 °F 21.2 °F 49% 30.23 in 10.0 mi South 8.1 mph - N/A   Clear
7:55 PM 39.2 °F 32.5 °F 24.8 °F 56% 30.23 in 10.0 mi South 10.4 mph - N/A   Clear
8:15 PM 39.2 °F 33.0 °F 24.8 °F 56% 30.22 in 10.0 mi South 9.2 mph - N/A   Clear
8:35 PM 39.2 °F 34.2 °F 24.8 °F 56% 30.22 in 10.0 mi South 6.9 mph - N/A   Clear
8:55 PM 39.2 °F 34.2 °F 24.8 °F 56% 30.22 in 10.0 mi South 6.9 mph - N/A   Clear
9:15 PM 37.4 °F 32.1 °F 24.8 °F 60% 30.22 in 10.0 mi South 6.9 mph - N/A   Clear
9:35 PM 37.4 °F 33.8 °F 24.8 °F 60% 30.22 in 10.0 mi South 4.6 mph - N/A   Clear
9:55 PM 37.4 °F - 24.8 °F 60% 30.22 in 10.0 mi Calm Calm - N/A   Clear
10:15 PM 37.4 °F 31.4 °F 24.8 °F 60% 30.22 in 10.0 mi South 8.1 mph - N/A   Clear
10:35 PM 37.4 °F 30.3 °F 26.6 °F 65% 30.22 in 10.0 mi South 10.4 mph - N/A   Clear
10:55 PM 39.2 °F 33.0 °F 24.8 °F 56% 30.22 in 10.0 mi South 9.2 mph - N/A   Clear
11:15 PM 39.2 °F 33.0 °F 24.8 °F 56% 30.22 in 10.0 mi South 9.2 mph - N/A   Clear
11:35 PM 39.2 °F 33.6 °F 26.6 °F 61% 30.23 in 10.0 mi South 8.1 mph - N/A   Clear
11:55 PM 39.2 °F 33.6 °F 26.6 °F 61% 30.24 in 10.0 mi SSW 8.1 mph - N/A   Clear